createdAt,value
2022-08-10T00:02:03.857Z,30.41
2022-08-10T00:04:31.126Z,30.43
2022-08-10T00:06:58.195Z,30.40
2022-08-10T00:09:26.701Z,30.33
2022-08-10T00:11:53.860Z,30.27
2022-08-10T00:14:20.949Z,30.16
2022-08-10T00:16:48.182Z,30.05
2022-08-10T00:19:16.655Z,30.02
2022-08-10T00:21:44.681Z,29.87
2022-08-10T00:24:11.860Z,29.84
2022-08-10T00:27:49.889Z,29.81
2022-08-10T00:29:27.621Z,29.92
2022-08-10T00:31:55.907Z,29.91
2022-08-10T00:34:26.599Z,29.95
2022-08-10T00:36:53.768Z,29.94
2022-08-10T00:39:21.039Z,29.98
2022-08-10T00:42:02.002Z,29.86
2022-08-10T00:44:36.139Z,29.84
2022-08-10T00:47:03.361Z,29.74
2022-08-10T00:49:30.760Z,29.75
2022-08-10T00:51:58.039Z,29.69
2022-08-10T00:54:25.550Z,29.56
2022-08-10T00:57:15.774Z,29.47
2022-08-10T00:59:57.626Z,29.37
2022-08-10T01:02:25.451Z,29.42
2022-08-10T01:04:59.592Z,29.36
2022-08-10T01:07:58.323Z,29.42
2022-08-10T01:10:38.842Z,29.38
2022-08-10T01:13:16.341Z,29.21
2022-08-10T01:15:56.863Z,29.23
2022-08-10T01:18:38.117Z,29.16
2022-08-10T01:21:56.563Z,29.23
2022-08-10T01:24:52.628Z,29.20
2022-08-10T01:27:28.999Z,29.20
2022-08-10T01:30:03.161Z,29.17
2022-08-10T01:32:45.170Z,29.08
2022-08-10T01:35:17.348Z,29.17
2022-08-10T01:37:57.443Z,29.08
2022-08-10T01:40:28.661Z,29.00
2022-08-10T01:42:59.632Z,29.09
2022-08-10T01:45:44.865Z,29.09
2022-08-10T01:48:19.919Z,29.14
2022-08-10T01:50:59.154Z,29.12
2022-08-10T01:53:40.989Z,29.13
2022-08-10T01:56:12.382Z,29.06
2022-08-10T01:58:41.681Z,29.08
2022-08-10T02:01:17.098Z,29.08
2022-08-10T02:04:03.702Z,28.88
2022-08-10T02:06:39.618Z,28.88
2022-08-10T02:09:09.027Z,28.93
2022-08-10T02:12:05.982Z,28.88
2022-08-10T02:14:32.901Z,28.90
2022-08-10T02:17:05.060Z,28.84
2022-08-10T02:19:36.460Z,28.81
2022-08-10T02:22:35.205Z,28.92
2022-08-10T02:24:57.753Z,28.95
2022-08-10T02:27:27.720Z,28.87
2022-08-10T02:29:58.111Z,28.91
2022-08-10T02:32:37.893Z,28.84
2022-08-10T02:35:13.195Z,28.86
2022-08-10T02:37:53.408Z,28.86
2022-08-10T02:42:18.191Z,28.92
2022-08-10T02:45:19.860Z,28.82
2022-08-10T02:46:14.001Z,28.82
2022-08-10T02:48:54.389Z,28.72
2022-08-10T02:52:06.267Z,28.71
2022-08-10T02:54:22.519Z,28.68
2022-08-10T02:56:58.021Z,28.61
2022-08-10T02:59:38.464Z,28.65
2022-08-10T03:02:14.519Z,28.70
2022-08-10T03:04:56.239Z,28.80
2022-08-10T03:07:43.153Z,28.77
2022-08-10T03:10:16.524Z,28.73
2022-08-10T03:12:49.490Z,28.77
2022-08-10T03:15:20.120Z,28.79
2022-08-10T03:17:58.178Z,28.69
2022-08-10T03:20:37.831Z,28.66
2022-08-10T03:23:10.287Z,28.65
2022-08-10T03:25:38.521Z,28.64
2022-08-10T03:28:07.130Z,28.59
2022-08-10T03:30:36.162Z,28.58
2022-08-10T03:33:06.551Z,28.55
2022-08-10T03:35:36.075Z,28.55
2022-08-10T03:38:04.260Z,28.47
2022-08-10T03:40:45.999Z,28.44
2022-08-10T03:43:18.180Z,28.37
2022-08-10T03:45:54.937Z,28.38
2022-08-10T03:48:33.247Z,28.35
2022-08-10T03:51:16.581Z,28.27
2022-08-10T03:54:04.941Z,28.20
2022-08-10T03:56:33.824Z,28.22
2022-08-10T03:59:02.333Z,28.20
2022-08-10T04:02:43.491Z,28.15
2022-08-10T04:04:23.700Z,28.10
2022-08-10T04:06:55.613Z,28.14
2022-08-10T04:09:29.655Z,28.04
2022-08-10T04:12:10.841Z,27.99
2022-08-10T04:14:49.978Z,28.02
2022-08-10T04:17:59.287Z,27.95
2022-08-10T04:20:18.203Z,27.93
2022-08-10T04:22:50.479Z,27.91
2022-08-10T04:25:19.881Z,27.89
2022-08-10T04:27:48.761Z,27.85
2022-08-10T04:30:16.661Z,27.95
2022-08-10T04:32:48.293Z,27.89
2022-08-10T04:35:19.487Z,27.85
2022-08-10T04:37:51.103Z,27.87
2022-08-10T04:40:28.496Z,27.88
2022-08-10T04:43:01.200Z,27.88
2022-08-10T04:45:49.716Z,27.82
2022-08-10T04:48:40.665Z,27.80
2022-08-10T04:51:05.268Z,27.77
2022-08-10T04:53:33.980Z,27.81
2022-08-10T04:56:21.119Z,27.71
2022-08-10T04:58:59.181Z,27.70
2022-08-10T05:01:26.437Z,27.74
2022-08-10T05:04:34.387Z,27.83
2022-08-10T05:06:40.821Z,27.82
2022-08-10T05:09:09.400Z,27.88
2022-08-10T05:11:36.541Z,27.98
2022-08-10T05:14:03.662Z,27.96
2022-08-10T05:16:32.047Z,27.96
2022-08-10T05:18:59.704Z,27.97
2022-08-10T05:22:03.115Z,27.99
2022-08-10T05:24:15.465Z,28.02
2022-08-10T05:27:00.515Z,28.03
2022-08-10T05:29:30.139Z,28.06
2022-08-10T05:31:57.340Z,28.13
2022-08-10T05:34:25.503Z,28.06
2022-08-10T05:36:54.472Z,28.23
2022-08-10T05:39:28.760Z,28.22
2022-08-10T05:42:01.897Z,28.18
2022-08-10T05:44:29.970Z,28.23
2022-08-10T05:46:57.124Z,28.24
2022-08-10T05:49:24.287Z,28.26
2022-08-10T05:51:51.939Z,28.33
2022-08-10T05:54:19.767Z,28.94
2022-08-10T05:56:53.506Z,29.17
2022-08-10T06:00:32.480Z,29.51
2022-08-10T06:02:41.506Z,29.27
2022-08-10T06:05:11.126Z,29.18
2022-08-10T06:07:42.582Z,29.16
2022-08-10T06:10:14.464Z,29.14
2022-08-10T06:13:03.237Z,29.00
2022-08-10T06:15:50.780Z,28.90
2022-08-10T06:18:19.962Z,28.89
2022-08-10T06:20:47.501Z,28.87
2022-08-10T06:23:14.781Z,28.88
2022-08-10T06:26:10.544Z,28.92
2022-08-10T06:28:35.162Z,28.94
2022-08-10T06:31:05.432Z,29.13
2022-08-10T06:33:37.521Z,29.45
2022-08-10T06:36:08.983Z,29.62
2022-08-10T06:38:39.660Z,29.89
2022-08-10T06:41:17.998Z,30.00
2022-08-10T06:43:59.343Z,30.07
2022-08-10T06:46:29.340Z,30.34
2022-08-10T06:49:01.640Z,30.58
2022-08-10T06:51:33.162Z,30.82
2022-08-10T06:54:03.526Z,31.04
2022-08-10T06:56:41.456Z,31.26
2022-08-10T06:59:22.733Z,31.44
2022-08-10T07:01:57.537Z,31.49
2022-08-10T07:04:33.206Z,31.59
2022-08-10T07:07:04.420Z,31.65
2022-08-10T07:09:36.281Z,31.86
2022-08-10T07:12:08.337Z,32.20
2022-08-10T07:14:42.670Z,32.38
2022-08-10T07:17:15.963Z,32.48
2022-08-10T07:19:50.514Z,32.46
2022-08-10T07:23:53.842Z,32.48
2022-08-10T07:25:15.176Z,32.47
2022-08-10T07:28:00.370Z,32.59
2022-08-10T07:30:36.201Z,32.89
2022-08-10T07:33:06.409Z,32.94
2022-08-10T07:35:42.547Z,33.07
2022-08-10T07:38:19.601Z,32.85
2022-08-10T07:40:50.015Z,32.96
2022-08-10T07:43:20.901Z,33.46
2022-08-10T07:45:51.021Z,33.39
2022-08-10T07:48:24.980Z,33.48
2022-08-10T07:50:56.161Z,33.44
2022-08-10T07:53:27.603Z,33.51
2022-08-10T07:56:04.372Z,32.82
2022-08-10T07:58:51.778Z,32.86
2022-08-10T08:01:28.070Z,32.96
2022-08-10T08:04:11.395Z,33.35
2022-08-10T08:06:42.562Z,33.24
2022-08-10T08:09:11.117Z,33.11
2022-08-10T08:11:41.561Z,33.12
2022-08-10T08:14:10.959Z,33.21
2022-08-10T08:16:44.159Z,33.10
2022-08-10T08:19:29.803Z,33.29
2022-08-10T08:24:08.084Z,33.27
2022-08-10T08:24:52.234Z,33.65
2022-08-10T08:27:21.781Z,33.46
2022-08-10T08:29:50.964Z,33.43
2022-08-10T08:32:22.081Z,33.43
2022-08-10T08:34:53.929Z,33.24
2022-08-10T08:38:31.411Z,33.28
2022-08-10T08:40:21.603Z,33.47
2022-08-10T08:43:15.742Z,33.77
2022-08-10T08:46:05.828Z,33.80
2022-08-10T08:48:53.822Z,33.30
2022-08-10T08:52:09.521Z,33.45
2022-08-10T08:54:48.268Z,33.32
2022-08-10T08:57:49.801Z,33.67
2022-08-10T09:00:23.863Z,33.63
2022-08-10T09:03:16.961Z,33.54
2022-08-10T09:06:02.087Z,33.61
2022-08-10T09:09:14.874Z,33.50
2022-08-10T09:12:01.923Z,33.53
2022-08-10T09:14:37.115Z,33.73
2022-08-10T09:17:16.580Z,33.88
2022-08-10T09:19:51.923Z,33.52
2022-08-10T09:22:31.211Z,33.88
2022-08-10T09:25:09.302Z,34.12
2022-08-10T09:27:43.494Z,34.34
2022-08-10T09:30:15.074Z,34.07
2022-08-10T09:36:15.038Z,34.33
2022-08-10T09:36:29.081Z,34.25
2022-08-10T09:38:58.607Z,34.56
2022-08-10T09:41:39.658Z,34.15
2022-08-10T09:44:21.545Z,34.13
2022-08-10T09:47:13.904Z,34.43
2022-08-10T09:50:04.433Z,34.09
2022-08-10T09:52:44.315Z,34.58
2022-08-10T09:55:24.248Z,34.91
2022-08-10T09:58:31.204Z,35.24
2022-08-10T10:01:06.319Z,35.22
2022-08-10T10:04:04.132Z,35.08
2022-08-10T10:06:39.888Z,35.46
2022-08-10T10:09:15.642Z,35.25
2022-08-10T10:12:07.667Z,35.47
2022-08-10T10:14:55.423Z,35.27
2022-08-10T10:17:40.822Z,35.48
2022-08-10T10:20:19.501Z,35.85
2022-08-10T10:22:59.123Z,35.93
2022-08-10T10:25:50.127Z,35.82
2022-08-10T10:29:15.397Z,36.02
2022-08-10T10:31:32.062Z,35.97
2022-08-10T10:34:09.522Z,35.04
2022-08-10T10:36:39.462Z,34.78
2022-08-10T10:39:08.110Z,34.68
2022-08-10T10:42:03.293Z,34.89
2022-08-10T10:44:49.443Z,34.72
2022-08-10T10:47:42.041Z,35.25
2022-08-10T10:50:14.464Z,35.50
2022-08-10T10:52:55.902Z,34.93
2022-08-10T10:55:33.745Z,35.15
2022-08-10T10:58:28.713Z,35.49
2022-08-10T11:01:05.994Z,35.22
2022-08-10T11:03:57.123Z,34.54
2022-08-10T11:06:43.521Z,34.78
2022-08-10T11:10:03.770Z,34.95
2022-08-10T11:12:18.237Z,35.04
2022-08-10T11:14:58.699Z,34.76
2022-08-10T11:17:38.803Z,34.23
2022-08-10T11:20:15.928Z,34.63
2022-08-10T11:22:53.202Z,34.35
2022-08-10T11:25:28.359Z,34.75
2022-08-10T11:28:08.520Z,34.52
2022-08-10T11:30:46.034Z,34.73
2022-08-10T11:33:30.814Z,34.76
2022-08-10T11:36:05.285Z,34.95
2022-08-10T11:39:04.080Z,34.44
2022-08-10T11:42:07.692Z,34.85
2022-08-10T11:44:34.161Z,35.09
2022-08-10T11:47:09.861Z,34.83
2022-08-10T11:49:49.639Z,34.53
2022-08-10T11:52:30.142Z,34.36
2022-08-10T11:55:05.520Z,34.63
2022-08-10T11:57:54.714Z,34.48
2022-08-10T12:00:24.231Z,34.53
2022-08-10T12:02:57.801Z,34.34
2022-08-10T12:05:51.552Z,33.97
2022-08-10T12:10:04.572Z,34.31
2022-08-10T12:11:09.141Z,34.52
2022-08-10T12:13:53.832Z,34.72
2022-08-10T12:16:35.058Z,34.11
2022-08-10T12:19:08.901Z,34.08
2022-08-10T12:21:43.383Z,33.95
2022-08-10T12:24:20.200Z,33.95
2022-08-10T12:26:57.001Z,34.35
2022-08-10T12:29:31.089Z,34.22
2022-08-10T12:32:12.208Z,34.61
2022-08-10T12:34:50.954Z,34.44
2022-08-10T12:37:26.841Z,34.38
2022-08-10T12:40:34.982Z,34.19
2022-08-10T12:43:12.762Z,34.28
2022-08-10T12:46:06.327Z,34.35
2022-08-10T12:48:39.179Z,34.23
2022-08-10T12:51:14.803Z,34.47
2022-08-10T12:53:51.921Z,34.32
2022-08-10T12:56:26.660Z,34.30
2022-08-10T12:58:58.713Z,34.08
2022-08-10T13:02:06.245Z,33.91
2022-08-10T13:04:28.283Z,33.80
2022-08-10T13:06:58.082Z,34.33
2022-08-10T13:09:28.179Z,34.27
2022-08-10T13:12:39.101Z,34.38
2022-08-10T13:14:53.103Z,33.38
2022-08-10T13:17:32.362Z,33.64
2022-08-10T13:20:18.471Z,33.93
2022-08-10T13:22:50.788Z,33.87
2022-08-10T13:25:28.585Z,34.10
2022-08-10T13:28:35.051Z,34.42
2022-08-10T13:30:51.263Z,34.55
2022-08-10T13:34:40.215Z,34.46
2022-08-10T13:36:15.623Z,34.42
2022-08-10T13:38:45.731Z,34.13
2022-08-10T13:41:14.984Z,34.13
2022-08-10T13:43:51.602Z,34.07
2022-08-10T13:46:22.111Z,34.35
2022-08-10T13:48:51.101Z,34.30
2022-08-10T13:51:22.122Z,34.14
2022-08-10T13:54:12.050Z,34.12
2022-08-10T13:56:44.921Z,34.45
2022-08-10T13:59:16.236Z,34.41
2022-08-10T14:01:49.456Z,34.44
2022-08-10T14:04:18.569Z,34.16
2022-08-10T14:06:52.341Z,34.08
2022-08-10T14:09:27.323Z,34.06
2022-08-10T14:11:57.922Z,34.21
2022-08-10T14:14:28.308Z,34.07
2022-08-10T14:16:57.468Z,33.95
2022-08-10T14:19:29.781Z,33.57
2022-08-10T14:21:58.220Z,33.73
2022-08-10T14:24:27.442Z,33.92
2022-08-10T14:27:06.429Z,34.20
2022-08-10T14:29:42.345Z,34.10
2022-08-10T14:32:11.623Z,34.08
2022-08-10T14:36:15.134Z,34.13
2022-08-10T14:37:38.186Z,34.21
2022-08-10T14:40:11.521Z,34.33
2022-08-10T14:42:47.303Z,34.32
2022-08-10T14:45:22.143Z,34.10
2022-08-10T14:48:01.269Z,34.25
2022-08-10T14:50:33.571Z,34.38
2022-08-10T14:53:09.493Z,34.47
2022-08-10T14:55:58.520Z,34.14
2022-08-10T14:58:33.182Z,34.39
2022-08-10T15:01:03.770Z,34.52
2022-08-10T15:04:01.198Z,34.56
2022-08-10T15:06:30.602Z,34.63
2022-08-10T15:09:18.823Z,34.66
2022-08-10T15:12:13.614Z,34.58
2022-08-10T15:14:43.693Z,34.28
2022-08-10T15:17:16.066Z,34.57
2022-08-10T15:20:03.365Z,34.69
2022-08-10T15:22:38.804Z,34.60
2022-08-10T15:25:18.624Z,34.59
2022-08-10T15:27:56.058Z,34.34
2022-08-10T15:30:30.842Z,34.49
2022-08-10T15:33:02.921Z,34.47
2022-08-10T15:35:31.844Z,34.23
2022-08-10T15:38:05.540Z,34.24
2022-08-10T15:40:50.722Z,34.50
2022-08-10T15:43:25.105Z,34.46
2022-08-10T15:46:00.721Z,34.59
2022-08-10T15:48:37.969Z,34.67
2022-08-10T15:51:12.964Z,34.72
2022-08-10T15:53:49.794Z,34.78
2022-08-10T15:56:29.186Z,34.76
2022-08-10T15:59:08.540Z,34.84
2022-08-10T16:02:04.274Z,34.83
2022-08-10T16:04:45.915Z,34.76
2022-08-10T16:07:22.045Z,34.60
2022-08-10T16:10:26.307Z,34.52
2022-08-10T16:13:00.116Z,34.60
2022-08-10T16:15:31.295Z,34.70
2022-08-10T16:18:07.517Z,34.57
2022-08-10T16:20:53.341Z,34.56
2022-08-10T16:23:26.329Z,34.30
2022-08-10T16:26:02.990Z,34.29
2022-08-10T16:28:36.181Z,34.44
2022-08-10T16:31:07.496Z,34.39
2022-08-10T16:33:53.687Z,34.25
2022-08-10T16:36:31.251Z,34.44
2022-08-10T16:39:00.785Z,34.50
2022-08-10T16:42:03.940Z,34.10
2022-08-10T16:44:22.982Z,34.19
2022-08-10T16:46:52.424Z,34.24
2022-08-10T16:49:24.659Z,34.28
2022-08-10T16:51:55.601Z,33.94
2022-08-10T16:54:27.728Z,34.11
2022-08-10T16:57:01.664Z,34.15
2022-08-10T16:59:32.841Z,34.10
2022-08-10T17:02:03.140Z,34.02
2022-08-10T17:04:35.363Z,33.80
2022-08-10T17:07:07.901Z,33.97
2022-08-10T17:09:39.623Z,34.02
2022-08-10T17:12:09.320Z,33.94
2022-08-10T17:14:39.260Z,33.97
2022-08-10T17:17:09.621Z,33.99
2022-08-10T17:19:42.659Z,33.93
2022-08-10T17:22:15.023Z,34.04
2022-08-10T17:24:46.752Z,34.10
2022-08-10T17:28:05.413Z,34.03
2022-08-10T17:30:13.815Z,33.92
2022-08-10T17:32:51.542Z,34.02
2022-08-10T17:35:23.984Z,34.04
2022-08-10T17:37:57.432Z,33.91
2022-08-10T17:40:28.063Z,33.90
2022-08-10T17:42:57.239Z,33.92
2022-08-10T17:45:48.088Z,33.90
2022-08-10T17:48:18.750Z,33.85
2022-08-10T17:50:51.489Z,33.88
2022-08-10T17:53:24.583Z,33.75
2022-08-10T17:55:57.081Z,33.76
2022-08-10T17:58:26.720Z,33.57
2022-08-10T18:01:41.679Z,33.58
2022-08-10T18:03:52.081Z,33.43
2022-08-10T18:06:22.962Z,33.49
2022-08-10T18:08:56.529Z,33.45
2022-08-10T18:11:28.569Z,33.38
2022-08-10T18:14:02.682Z,33.18
2022-08-10T18:16:33.123Z,33.22
2022-08-10T18:19:06.861Z,33.10
2022-08-10T18:21:40.049Z,33.14
2022-08-10T18:24:16.314Z,33.03
2022-08-10T18:26:46.524Z,33.00
2022-08-10T18:29:19.485Z,32.68
2022-08-10T18:31:49.277Z,32.83
2022-08-10T18:34:19.949Z,32.81
2022-08-10T18:36:52.982Z,32.84
2022-08-10T18:39:24.294Z,32.77
2022-08-10T18:42:00.730Z,32.80
2022-08-10T18:44:36.761Z,32.84
2022-08-10T18:47:12.780Z,32.82
2022-08-10T18:49:58.140Z,32.73
2022-08-10T18:52:34.450Z,32.75
2022-08-10T18:55:23.289Z,32.63
2022-08-10T18:58:33.271Z,32.71
2022-08-10T19:01:32.643Z,32.46
2022-08-10T19:04:24.102Z,32.50
2022-08-10T19:07:09.342Z,32.55
2022-08-10T19:09:56.501Z,32.46
2022-08-10T19:12:48.924Z,32.53
2022-08-10T19:15:29.124Z,32.44
2022-08-10T19:18:11.245Z,32.41
2022-08-10T19:20:48.602Z,32.35
2022-08-10T19:23:33.341Z,32.21
2022-08-10T19:26:42.549Z,32.15
2022-08-10T19:29:14.322Z,32.09
2022-08-10T19:32:08.703Z,32.16
2022-08-10T19:34:49.708Z,32.17
2022-08-10T19:37:33.952Z,32.22
2022-08-10T19:40:14.087Z,32.17
2022-08-10T19:42:49.642Z,32.21
2022-08-10T19:46:01.771Z,32.12
2022-08-10T19:48:31.282Z,31.91
2022-08-10T19:51:06.521Z,31.85
2022-08-10T19:53:47.662Z,31.84
2022-08-10T19:56:34.173Z,31.77
2022-08-10T20:00:15.846Z,31.80
2022-08-10T20:02:23.406Z,31.57
2022-08-10T20:05:01.824Z,31.65
2022-08-10T20:07:38.322Z,31.62
2022-08-10T20:10:15.244Z,31.58
2022-08-10T20:12:51.930Z,31.61
2022-08-10T20:15:31.861Z,31.66
2022-08-10T20:18:14.574Z,31.69
2022-08-10T20:20:52.069Z,31.65
2022-08-10T20:23:23.641Z,31.67
2022-08-10T20:25:56.765Z,31.62
2022-08-10T20:28:36.143Z,31.60
2022-08-10T20:31:17.020Z,31.60
2022-08-10T20:34:00.654Z,31.48
2022-08-10T20:36:32.664Z,31.45
2022-08-10T20:39:13.641Z,31.43
2022-08-10T20:41:55.322Z,31.31
2022-08-10T20:44:35.891Z,31.34
2022-08-10T20:47:13.923Z,31.42
2022-08-10T20:49:54.464Z,31.24
2022-08-10T20:52:25.741Z,31.31
2022-08-10T20:54:59.144Z,31.15
2022-08-10T20:57:54.754Z,31.25
2022-08-10T21:00:30.704Z,31.11
2022-08-10T21:03:31.381Z,31.19
2022-08-10T21:06:27.545Z,31.23
2022-08-10T21:09:19.423Z,31.22
2022-08-10T21:12:02.362Z,31.19
2022-08-10T21:14:44.080Z,31.16
2022-08-10T21:17:39.178Z,31.19
2022-08-10T21:20:33.305Z,31.27
2022-08-10T21:23:08.606Z,31.12
2022-08-10T21:25:46.737Z,31.13
2022-08-10T21:28:49.739Z,31.08
2022-08-10T21:31:45.144Z,31.04
2022-08-10T21:34:31.760Z,30.91
2022-08-10T21:37:12.075Z,30.88
2022-08-10T21:39:58.189Z,30.89
2022-08-10T21:42:44.065Z,30.96
2022-08-10T21:45:43.522Z,31.02
2022-08-10T21:48:30.442Z,30.98
2022-08-10T21:51:06.258Z,31.02
2022-08-10T21:53:48.696Z,30.93
2022-08-10T21:56:24.299Z,30.92
2022-08-10T21:59:02.034Z,31.00
2022-08-10T22:01:39.410Z,30.97
2022-08-10T22:04:08.195Z,30.97
2022-08-10T22:06:52.258Z,30.95
2022-08-10T22:09:42.551Z,30.84
2022-08-10T22:12:24.636Z,30.87
2022-08-10T22:15:05.775Z,30.84
2022-08-10T22:17:59.630Z,30.95
2022-08-10T22:20:34.554Z,31.01
2022-08-10T22:23:24.174Z,30.99
2022-08-10T22:26:10.313Z,30.97
2022-08-10T22:28:48.642Z,30.99
2022-08-10T22:31:43.115Z,30.98
2022-08-10T22:34:32.535Z,30.97
2022-08-10T22:37:18.192Z,31.02
2022-08-10T22:40:10.082Z,31.06
2022-08-10T22:42:59.143Z,31.04
2022-08-10T22:45:32.813Z,30.96
2022-08-10T22:48:01.813Z,30.84
2022-08-10T22:50:32.274Z,30.61
2022-08-10T22:53:06.056Z,30.64
2022-08-10T22:55:38.375Z,30.52
2022-08-10T22:58:14.193Z,30.52
2022-08-10T23:00:41.856Z,30.45
2022-08-10T23:03:16.438Z,30.37
2022-08-10T23:05:56.554Z,30.36
2022-08-10T23:08:29.935Z,30.31
2022-08-10T23:11:04.365Z,30.28
2022-08-10T23:13:38.014Z,30.24
2022-08-10T23:16:14.893Z,30.20
2022-08-10T23:18:47.912Z,30.18
2022-08-10T23:21:18.134Z,30.10
2022-08-10T23:23:47.592Z,29.98
2022-08-10T23:26:26.094Z,29.98
2022-08-10T23:28:59.239Z,29.98
2022-08-10T23:32:01.036Z,29.85
2022-08-10T23:34:30.954Z,30.03
2022-08-10T23:37:01.634Z,30.43
2022-08-10T23:39:36.582Z,30.63
2022-08-10T23:42:08.634Z,30.74
2022-08-10T23:44:43.060Z,30.86
2022-08-10T23:47:16.013Z,30.93
2022-08-10T23:49:46.315Z,30.99
2022-08-10T23:52:18.795Z,31.02
2022-08-10T23:54:51.434Z,31.06
2022-08-10T23:57:22.893Z,31.05
2022-08-10T23:59:57.094Z,30.86
